Terminal Aerodrome Forecast
Issued by NWS

Home | Current Version | Previous Version | Text Only | Print | Product List | Glossary On
Versions: 1 2 3 4 5 6 7 8 9 10 11 12 13 14 15
796
FTUS44 KLZK 241734
TAFBPK
TAF
KBPK 241734Z 2418/2518 18007KT P6SM VCSH SCT050
     FM250100 13003KT P6SM FEW250
     FM251000 13003KT P6SM FEW040 SCT100 SCT250=

USA.gov is the U.S. government's official web portal to all federal, state and local government web resources and services.